sensor_id;sensor_type;location;lat;lon;timestamp;P1;durP1;ratioP1;P2;durP2;ratioP2
80677;SDS011;70042;52.494;5.502;2023-11-22T00:02:08;7.00;;;4.72;;
80677;SDS011;70042;52.494;5.502;2023-11-22T00:04:33;5.97;;;4.43;;
80677;SDS011;70042;52.494;5.502;2023-11-22T00:06:59;5.60;;;4.55;;
80677;SDS011;70042;52.494;5.502;2023-11-22T00:09:24;5.45;;;4.43;;
80677;SDS011;70042;52.494;5.502;2023-11-22T00:11:50;5.57;;;4.10;;
80677;SDS011;70042;52.494;5.502;2023-11-22T00:14:15;5.53;;;4.30;;
80677;SDS011;70042;52.494;5.502;2023-11-22T00:16:41;6.00;;;4.20;;
80677;SDS011;70042;52.494;5.502;2023-11-22T00:19:07;5.45;;;4.07;;
80677;SDS011;70042;52.494;5.502;2023-11-22T00:21:33;6.07;;;4.40;;
80677;SDS011;70042;52.494;5.502;2023-11-22T00:23:58;6.40;;;4.60;;
80677;SDS011;70042;52.494;5.502;2023-11-22T00:26:24;5.30;;;4.35;;
80677;SDS011;70042;52.494;5.502;2023-11-22T00:28:50;5.45;;;4.03;;
80677;SDS011;70042;52.494;5.502;2023-11-22T00:31:15;6.10;;;4.30;;
80677;SDS011;70042;52.494;5.502;2023-11-22T00:33:40;5.22;;;3.88;;
80677;SDS011;70042;52.494;5.502;2023-11-22T00:36:06;4.57;;;3.92;;
80677;SDS011;70042;52.494;5.502;2023-11-22T00:38:33;5.55;;;4.32;;
80677;SDS011;70042;52.494;5.502;2023-11-22T00:41:01;5.40;;;3.85;;
80677;SDS011;70042;52.494;5.502;2023-11-22T00:43:27;5.38;;;3.92;;
80677;SDS011;70042;52.494;5.502;2023-11-22T00:45:52;5.47;;;4.00;;
80677;SDS011;70042;52.494;5.502;2023-11-22T00:48:18;5.53;;;4.18;;
80677;SDS011;70042;52.494;5.502;2023-11-22T00:50:44;4.80;;;3.88;;
80677;SDS011;70042;52.494;5.502;2023-11-22T00:53:09;5.63;;;3.75;;
80677;SDS011;70042;52.494;5.502;2023-11-22T00:55:35;3.90;;;3.50;;
80677;SDS011;70042;52.494;5.502;2023-11-22T00:58:00;5.22;;;4.43;;
80677;SDS011;70042;52.494;5.502;2023-11-22T01:00:30;4.57;;;3.80;;
80677;SDS011;70042;52.494;5.502;2023-11-22T01:02:55;5.32;;;3.97;;
80677;SDS011;70042;52.494;5.502;2023-11-22T01:05:21;4.88;;;3.67;;
80677;SDS011;70042;52.494;5.502;2023-11-22T01:07:47;4.07;;;2.97;;
80677;SDS011;70042;52.494;5.502;2023-11-22T01:10:13;5.00;;;3.65;;
80677;SDS011;70042;52.494;5.502;2023-11-22T01:12:40;4.90;;;3.15;;
80677;SDS011;70042;52.494;5.502;2023-11-22T01:15:06;4.82;;;3.80;;
80677;SDS011;70042;52.494;5.502;2023-11-22T01:17:33;5.10;;;3.92;;
80677;SDS011;70042;52.494;5.502;2023-11-22T01:19:59;4.95;;;3.22;;
80677;SDS011;70042;52.494;5.502;2023-11-22T01:22:25;5.53;;;4.13;;
80677;SDS011;70042;52.494;5.502;2023-11-22T01:24:50;4.97;;;3.85;;
80677;SDS011;70042;52.494;5.502;2023-11-22T01:27:16;5.30;;;3.47;;
80677;SDS011;70042;52.494;5.502;2023-11-22T01:29:41;4.28;;;3.65;;
80677;SDS011;70042;52.494;5.502;2023-11-22T01:32:07;4.43;;;3.38;;
80677;SDS011;70042;52.494;5.502;2023-11-22T01:34:34;4.60;;;3.65;;
80677;SDS011;70042;52.494;5.502;2023-11-22T01:39:25;4.93;;;3.77;;
80677;SDS011;70042;52.494;5.502;2023-11-22T01:41:51;3.97;;;3.55;;
80677;SDS011;70042;52.494;5.502;2023-11-22T01:44:17;4.68;;;3.25;;
80677;SDS011;70042;52.494;5.502;2023-11-22T01:46:43;4.13;;;2.83;;
80677;SDS011;70042;52.494;5.502;2023-11-22T01:49:09;4.22;;;3.20;;
80677;SDS011;70042;52.494;5.502;2023-11-22T01:54:02;3.80;;;2.75;;
80677;SDS011;70042;52.494;5.502;2023-11-22T01:56:28;4.88;;;3.22;;
80677;SDS011;70042;52.494;5.502;2023-11-22T01:58:54;4.45;;;3.03;;
80677;SDS011;70042;52.494;5.502;2023-11-22T02:01:21;4.13;;;3.35;;
80677;SDS011;70042;52.494;5.502;2023-11-22T02:03:47;4.18;;;3.25;;
80677;SDS011;70042;52.494;5.502;2023-11-22T02:06:14;4.22;;;3.00;;
80677;SDS011;70042;52.494;5.502;2023-11-22T02:08:41;4.50;;;3.20;;
80677;SDS011;70042;52.494;5.502;2023-11-22T02:11:08;4.45;;;2.80;;
80677;SDS011;70042;52.494;5.502;2023-11-22T02:13:34;4.65;;;3.35;;
80677;SDS011;70042;52.494;5.502;2023-11-22T02:15:59;4.30;;;3.10;;
80677;SDS011;70042;52.494;5.502;2023-11-22T02:18:26;3.83;;;3.22;;
80677;SDS011;70042;52.494;5.502;2023-11-22T02:20:52;3.83;;;2.92;;
80677;SDS011;70042;52.494;5.502;2023-11-22T02:23:18;3.58;;;2.83;;
80677;SDS011;70042;52.494;5.502;2023-11-22T02:25:44;4.25;;;3.42;;
80677;SDS011;70042;52.494;5.502;2023-11-22T02:28:10;3.47;;;2.80;;
80677;SDS011;70042;52.494;5.502;2023-11-22T02:33:02;5.20;;;3.40;;
80677;SDS011;70042;52.494;5.502;2023-11-22T02:35:27;4.32;;;3.22;;
80677;SDS011;70042;52.494;5.502;2023-11-22T02:37:53;3.83;;;3.05;;
80677;SDS011;70042;52.494;5.502;2023-11-22T02:40:19;4.05;;;3.00;;
80677;SDS011;70042;52.494;5.502;2023-11-22T02:42:50;3.70;;;3.05;;
80677;SDS011;70042;52.494;5.502;2023-11-22T02:45:17;4.00;;;2.88;;
80677;SDS011;70042;52.494;5.502;2023-11-22T02:47:46;3.63;;;2.70;;
80677;SDS011;70042;52.494;5.502;2023-11-22T02:50:12;3.58;;;2.92;;
80677;SDS011;70042;52.494;5.502;2023-11-22T02:52:38;3.65;;;3.25;;
80677;SDS011;70042;52.494;5.502;2023-11-22T02:55:04;3.83;;;2.88;;
80677;SDS011;70042;52.494;5.502;2023-11-22T02:59:56;4.47;;;2.95;;
80677;SDS011;70042;52.494;5.502;2023-11-22T03:02:22;3.55;;;2.85;;
80677;SDS011;70042;52.494;5.502;2023-11-22T03:04:47;3.35;;;2.80;;
80677;SDS011;70042;52.494;5.502;2023-11-22T03:07:13;3.50;;;2.70;;
80677;SDS011;70042;52.494;5.502;2023-11-22T03:09:39;3.58;;;2.67;;
80677;SDS011;70042;52.494;5.502;2023-11-22T03:12:05;3.65;;;3.03;;
80677;SDS011;70042;52.494;5.502;2023-11-22T03:14:31;4.30;;;2.67;;
80677;SDS011;70042;52.494;5.502;2023-11-22T03:16:57;3.50;;;2.85;;
80677;SDS011;70042;52.494;5.502;2023-11-22T03:19:22;4.03;;;2.88;;
80677;SDS011;70042;52.494;5.502;2023-11-22T03:21:49;4.03;;;2.95;;
80677;SDS011;70042;52.494;5.502;2023-11-22T03:24:15;4.15;;;3.08;;
80677;SDS011;70042;52.494;5.502;2023-11-22T03:26:41;3.55;;;2.90;;
80677;SDS011;70042;52.494;5.502;2023-11-22T03:29:06;3.05;;;2.50;;
80677;SDS011;70042;52.494;5.502;2023-11-22T03:31:32;3.28;;;2.67;;
80677;SDS011;70042;52.494;5.502;2023-11-22T03:33:57;3.67;;;2.97;;
80677;SDS011;70042;52.494;5.502;2023-11-22T03:36:23;3.15;;;2.63;;
80677;SDS011;70042;52.494;5.502;2023-11-22T03:38:49;3.53;;;2.33;;
80677;SDS011;70042;52.494;5.502;2023-11-22T03:41:15;3.53;;;2.95;;
80677;SDS011;70042;52.494;5.502;2023-11-22T03:43:42;3.92;;;2.78;;
80677;SDS011;70042;52.494;5.502;2023-11-22T03:46:08;3.85;;;2.78;;
80677;SDS011;70042;52.494;5.502;2023-11-22T03:48:34;3.30;;;2.67;;
80677;SDS011;70042;52.494;5.502;2023-11-22T03:51:00;3.65;;;2.55;;
80677;SDS011;70042;52.494;5.502;2023-11-22T03:53:25;3.30;;;2.35;;
80677;SDS011;70042;52.494;5.502;2023-11-22T03:55:52;3.10;;;2.42;;
80677;SDS011;70042;52.494;5.502;2023-11-22T03:58:17;3.22;;;2.45;;
80677;SDS011;70042;52.494;5.502;2023-11-22T04:00:43;3.78;;;2.65;;
80677;SDS011;70042;52.494;5.502;2023-11-22T04:03:08;3.60;;;2.30;;
80677;SDS011;70042;52.494;5.502;2023-11-22T04:05:34;2.72;;;2.40;;
80677;SDS011;70042;52.494;5.502;2023-11-22T04:07:59;3.17;;;2.42;;
80677;SDS011;70042;52.494;5.502;2023-11-22T04:10:26;3.42;;;2.60;;
80677;SDS011;70042;52.494;5.502;2023-11-22T04:12:51;3.47;;;2.53;;
80677;SDS011;70042;52.494;5.502;2023-11-22T04:15:17;3.33;;;2.63;;
80677;SDS011;70042;52.494;5.502;2023-11-22T04:17:43;3.80;;;2.70;;
80677;SDS011;70042;52.494;5.502;2023-11-22T04:20:09;3.92;;;2.97;;
80677;SDS011;70042;52.494;5.502;2023-11-22T04:22:39;3.55;;;2.65;;
80677;SDS011;70042;52.494;5.502;2023-11-22T04:25:10;2.80;;;2.58;;
80677;SDS011;70042;52.494;5.502;2023-11-22T04:27:38;3.08;;;2.55;;
80677;SDS011;70042;52.494;5.502;2023-11-22T04:30:05;3.25;;;2.47;;
80677;SDS011;70042;52.494;5.502;2023-11-22T04:32:33;3.35;;;2.67;;
80677;SDS011;70042;52.494;5.502;2023-11-22T04:35:01;3.83;;;2.53;;
80677;SDS011;70042;52.494;5.502;2023-11-22T04:37:29;3.70;;;2.60;;
80677;SDS011;70042;52.494;5.502;2023-11-22T04:39:57;3.20;;;2.72;;
80677;SDS011;70042;52.494;5.502;2023-11-22T04:42:22;4.38;;;2.60;;
80677;SDS011;70042;52.494;5.502;2023-11-22T04:44:48;3.90;;;2.63;;
80677;SDS011;70042;52.494;5.502;2023-11-22T04:47:14;3.30;;;2.25;;
80677;SDS011;70042;52.494;5.502;2023-11-22T04:49:39;3.33;;;2.53;;
80677;SDS011;70042;52.494;5.502;2023-11-22T04:52:05;2.60;;;2.17;;
80677;SDS011;70042;52.494;5.502;2023-11-22T04:54:30;3.53;;;2.70;;
80677;SDS011;70042;52.494;5.502;2023-11-22T04:56:57;2.30;;;1.95;;
80677;SDS011;70042;52.494;5.502;2023-11-22T04:59:23;2.90;;;2.25;;
80677;SDS011;70042;52.494;5.502;2023-11-22T05:01:48;3.03;;;2.33;;
80677;SDS011;70042;52.494;5.502;2023-11-22T05:04:14;4.03;;;2.05;;
80677;SDS011;70042;52.494;5.502;2023-11-22T05:06:40;3.47;;;2.60;;
80677;SDS011;70042;52.494;5.502;2023-11-22T05:09:05;4.00;;;2.40;;
80677;SDS011;70042;52.494;5.502;2023-11-22T05:11:31;2.45;;;1.73;;
80677;SDS011;70042;52.494;5.502;2023-11-22T05:13:57;2.50;;;1.80;;
80677;SDS011;70042;52.494;5.502;2023-11-22T05:16:22;3.17;;;2.28;;
80677;SDS011;70042;52.494;5.502;2023-11-22T05:21:14;2.95;;;1.92;;
80677;SDS011;70042;52.494;5.502;2023-11-22T05:23:39;2.83;;;2.17;;
80677;SDS011;70042;52.494;5.502;2023-11-22T05:26:05;3.30;;;2.40;;
80677;SDS011;70042;52.494;5.502;2023-11-22T05:28:31;3.25;;;2.42;;
80677;SDS011;70042;52.494;5.502;2023-11-22T05:30:57;2.63;;;2.03;;
80677;SDS011;70042;52.494;5.502;2023-11-22T05:33:22;2.63;;;2.15;;
80677;SDS011;70042;52.494;5.502;2023-11-22T05:35:49;3.00;;;2.15;;
80677;SDS011;70042;52.494;5.502;2023-11-22T05:38:14;2.92;;;2.15;;
80677;SDS011;70042;52.494;5.502;2023-11-22T05:40:39;2.35;;;1.80;;
80677;SDS011;70042;52.494;5.502;2023-11-22T05:43:06;2.28;;;1.88;;
80677;SDS011;70042;52.494;5.502;2023-11-22T05:45:33;3.65;;;2.45;;
80677;SDS011;70042;52.494;5.502;2023-11-22T05:47:59;2.55;;;1.90;;
80677;SDS011;70042;52.494;5.502;2023-11-22T05:50:25;2.40;;;2.05;;
80677;SDS011;70042;52.494;5.502;2023-11-22T05:52:50;3.03;;;2.30;;
80677;SDS011;70042;52.494;5.502;2023-11-22T05:55:16;3.10;;;2.30;;
80677;SDS011;70042;52.494;5.502;2023-11-22T05:57:43;2.90;;;2.08;;
80677;SDS011;70042;52.494;5.502;2023-11-22T06:00:09;3.17;;;2.42;;
80677;SDS011;70042;52.494;5.502;2023-11-22T06:05:02;3.00;;;1.83;;
80677;SDS011;70042;52.494;5.502;2023-11-22T06:09:54;2.40;;;1.95;;
80677;SDS011;70042;52.494;5.502;2023-11-22T06:12:20;2.70;;;2.13;;
80677;SDS011;70042;52.494;5.502;2023-11-22T06:14:46;2.60;;;1.98;;
80677;SDS011;70042;52.494;5.502;2023-11-22T06:19:37;2.75;;;2.08;;
80677;SDS011;70042;52.494;5.502;2023-11-22T06:22:03;3.15;;;2.10;;
80677;SDS011;70042;52.494;5.502;2023-11-22T06:24:28;2.65;;;2.05;;
80677;SDS011;70042;52.494;5.502;2023-11-22T06:26:54;3.22;;;2.22;;
80677;SDS011;70042;52.494;5.502;2023-11-22T06:29:19;2.10;;;1.88;;
80677;SDS011;70042;52.494;5.502;2023-11-22T06:31:45;2.42;;;1.90;;
80677;SDS011;70042;52.494;5.502;2023-11-22T06:34:10;2.97;;;2.53;;
80677;SDS011;70042;52.494;5.502;2023-11-22T06:36:37;2.70;;;2.33;;
80677;SDS011;70042;52.494;5.502;2023-11-22T06:39:02;2.55;;;1.90;;
80677;SDS011;70042;52.494;5.502;2023-11-22T06:41:29;2.80;;;2.25;;
80677;SDS011;70042;52.494;5.502;2023-11-22T06:43:55;3.10;;;2.20;;
80677;SDS011;70042;52.494;5.502;2023-11-22T06:46:20;2.90;;;2.22;;
80677;SDS011;70042;52.494;5.502;2023-11-22T06:48:47;3.33;;;2.35;;
80677;SDS011;70042;52.494;5.502;2023-11-22T06:51:14;2.97;;;2.20;;
80677;SDS011;70042;52.494;5.502;2023-11-22T06:53:40;3.58;;;2.55;;
80677;SDS011;70042;52.494;5.502;2023-11-22T06:56:05;2.90;;;2.10;;
80677;SDS011;70042;52.494;5.502;2023-11-22T06:58:31;2.85;;;1.95;;
80677;SDS011;70042;52.494;5.502;2023-11-22T07:00:57;3.08;;;2.13;;
80677;SDS011;70042;52.494;5.502;2023-11-22T07:03:22;3.15;;;2.10;;
80677;SDS011;70042;52.494;5.502;2023-11-22T07:05:47;2.90;;;1.95;;
80677;SDS011;70042;52.494;5.502;2023-11-22T07:08:13;2.85;;;2.03;;
80677;SDS011;70042;52.494;5.502;2023-11-22T07:10:41;2.80;;;2.30;;
80677;SDS011;70042;52.494;5.502;2023-11-22T07:13:07;2.55;;;2.10;;
80677;SDS011;70042;52.494;5.502;2023-11-22T07:15:32;3.00;;;2.00;;
80677;SDS011;70042;52.494;5.502;2023-11-22T07:17:58;2.72;;;1.95;;
80677;SDS011;70042;52.494;5.502;2023-11-22T07:22:49;2.78;;;1.63;;
80677;SDS011;70042;52.494;5.502;2023-11-22T07:25:20;2.60;;;1.92;;
80677;SDS011;70042;52.494;5.502;2023-11-22T07:27:49;2.83;;;2.30;;
80677;SDS011;70042;52.494;5.502;2023-11-22T07:32:41;3.30;;;2.33;;
80677;SDS011;70042;52.494;5.502;2023-11-22T07:35:07;2.50;;;1.98;;
80677;SDS011;70042;52.494;5.502;2023-11-22T07:37:36;2.83;;;2.22;;
80677;SDS011;70042;52.494;5.502;2023-11-22T07:40:05;4.22;;;2.20;;
80677;SDS011;70042;52.494;5.502;2023-11-22T07:42:33;2.97;;;2.42;;
80677;SDS011;70042;52.494;5.502;2023-11-22T07:44:58;3.13;;;1.90;;
80677;SDS011;70042;52.494;5.502;2023-11-22T07:47:24;3.92;;;2.28;;
80677;SDS011;70042;52.494;5.502;2023-11-22T07:49:50;3.85;;;2.35;;
80677;SDS011;70042;52.494;5.502;2023-11-22T07:52:16;3.10;;;2.20;;
80677;SDS011;70042;52.494;5.502;2023-11-22T07:54:42;4.05;;;2.10;;
80677;SDS011;70042;52.494;5.502;2023-11-22T07:57:07;2.85;;;2.17;;
80677;SDS011;70042;52.494;5.502;2023-11-22T07:59:33;3.95;;;2.78;;
80677;SDS011;70042;52.494;5.502;2023-11-22T08:01:58;3.17;;;1.88;;
80677;SDS011;70042;52.494;5.502;2023-11-22T08:04:26;2.50;;;1.83;;
80677;SDS011;70042;52.494;5.502;2023-11-22T08:06:53;3.47;;;2.20;;
80677;SDS011;70042;52.494;5.502;2023-11-22T08:09:22;3.05;;;1.92;;
80677;SDS011;70042;52.494;5.502;2023-11-22T08:11:48;3.55;;;1.90;;
80677;SDS011;70042;52.494;5.502;2023-11-22T08:14:14;3.30;;;2.20;;
80677;SDS011;70042;52.494;5.502;2023-11-22T08:16:40;3.70;;;2.58;;
80677;SDS011;70042;52.494;5.502;2023-11-22T08:19:08;3.58;;;2.10;;
80677;SDS011;70042;52.494;5.502;2023-11-22T08:21:34;2.40;;;2.05;;
80677;SDS011;70042;52.494;5.502;2023-11-22T08:24:00;3.40;;;2.20;;
80677;SDS011;70042;52.494;5.502;2023-11-22T08:26:25;2.45;;;1.85;;
80677;SDS011;70042;52.494;5.502;2023-11-22T08:28:51;2.50;;;1.88;;
80677;SDS011;70042;52.494;5.502;2023-11-22T08:31:17;3.92;;;2.00;;
80677;SDS011;70042;52.494;5.502;2023-11-22T08:33:42;3.25;;;2.50;;
80677;SDS011;70042;52.494;5.502;2023-11-22T08:36:08;2.45;;;1.95;;
80677;SDS011;70042;52.494;5.502;2023-11-22T08:38:37;3.28;;;1.98;;
80677;SDS011;70042;52.494;5.502;2023-11-22T08:41:09;2.78;;;1.95;;
80677;SDS011;70042;52.494;5.502;2023-11-22T08:43:38;5.40;;;2.42;;
80677;SDS011;70042;52.494;5.502;2023-11-22T08:46:04;2.55;;;1.77;;
80677;SDS011;70042;52.494;5.502;2023-11-22T08:48:31;2.53;;;1.80;;
80677;SDS011;70042;52.494;5.502;2023-11-22T08:53:23;3.25;;;2.22;;
80677;SDS011;70042;52.494;5.502;2023-11-22T08:55:49;3.08;;;2.05;;
80677;SDS011;70042;52.494;5.502;2023-11-22T08:58:14;3.83;;;2.42;;
80677;SDS011;70042;52.494;5.502;2023-11-22T09:00:40;2.67;;;2.05;;
80677;SDS011;70042;52.494;5.502;2023-11-22T09:03:09;4.25;;;2.33;;
80677;SDS011;70042;52.494;5.502;2023-11-22T09:05:41;2.65;;;2.05;;
80677;SDS011;70042;52.494;5.502;2023-11-22T09:08:11;2.83;;;1.95;;
80677;SDS011;70042;52.494;5.502;2023-11-22T09:10:39;3.20;;;2.25;;
80677;SDS011;70042;52.494;5.502;2023-11-22T09:13:06;3.10;;;2.38;;
80677;SDS011;70042;52.494;5.502;2023-11-22T09:15:33;3.85;;;2.25;;
80677;SDS011;70042;52.494;5.502;2023-11-22T09:18:00;3.17;;;2.03;;
80677;SDS011;70042;52.494;5.502;2023-11-22T09:20:25;3.17;;;2.22;;
80677;SDS011;70042;52.494;5.502;2023-11-22T09:22:52;2.97;;;2.13;;
80677;SDS011;70042;52.494;5.502;2023-11-22T09:25:20;3.30;;;2.60;;
80677;SDS011;70042;52.494;5.502;2023-11-22T09:27:47;3.08;;;2.33;;
80677;SDS011;70042;52.494;5.502;2023-11-22T09:30:16;2.85;;;2.15;;
80677;SDS011;70042;52.494;5.502;2023-11-22T09:33:01;3.58;;;1.77;;
80677;SDS011;70042;52.494;5.502;2023-11-22T09:35:31;3.83;;;2.35;;
80677;SDS011;70042;52.494;5.502;2023-11-22T09:38:00;3.03;;;1.88;;
80677;SDS011;70042;52.494;5.502;2023-11-22T09:40:27;3.13;;;2.08;;
80677;SDS011;70042;52.494;5.502;2023-11-22T09:42:54;4.18;;;2.13;;
80677;SDS011;70042;52.494;5.502;2023-11-22T09:45:23;2.65;;;2.25;;
80677;SDS011;70042;52.494;5.502;2023-11-22T09:47:50;2.97;;;2.22;;
80677;SDS011;70042;52.494;5.502;2023-11-22T09:50:19;2.45;;;2.00;;
80677;SDS011;70042;52.494;5.502;2023-11-22T09:52:51;3.22;;;2.25;;
80677;SDS011;70042;52.494;5.502;2023-11-22T09:57:51;3.22;;;1.90;;
80677;SDS011;70042;52.494;5.502;2023-11-22T10:00:18;2.22;;;1.90;;
80677;SDS011;70042;52.494;5.502;2023-11-22T10:02:47;3.30;;;2.15;;
80677;SDS011;70042;52.494;5.502;2023-11-22T10:07:39;3.17;;;2.17;;
80677;SDS011;70042;52.494;5.502;2023-11-22T10:12:31;4.15;;;1.92;;
80677;SDS011;70042;52.494;5.502;2023-11-22T10:15:12;3.33;;;2.33;;
80677;SDS011;70042;52.494;5.502;2023-11-22T10:17:40;3.10;;;2.17;;
80677;SDS011;70042;52.494;5.502;2023-11-22T10:20:05;3.05;;;1.80;;
80677;SDS011;70042;52.494;5.502;2023-11-22T10:22:45;2.38;;;1.90;;
80677;SDS011;70042;52.494;5.502;2023-11-22T10:25:13;2.90;;;2.38;;
80677;SDS011;70042;52.494;5.502;2023-11-22T10:27:39;2.78;;;2.20;;
80677;SDS011;70042;52.494;5.502;2023-11-22T10:32:31;3.10;;;1.98;;
80677;SDS011;70042;52.494;5.502;2023-11-22T10:34:58;2.53;;;1.98;;
80677;SDS011;70042;52.494;5.502;2023-11-22T10:37:24;2.88;;;2.20;;
80677;SDS011;70042;52.494;5.502;2023-11-22T10:39:51;4.65;;;2.20;;
80677;SDS011;70042;52.494;5.502;2023-11-22T10:44:42;3.30;;;2.45;;
80677;SDS011;70042;52.494;5.502;2023-11-22T10:47:08;5.03;;;2.83;;
80677;SDS011;70042;52.494;5.502;2023-11-22T10:49:35;2.85;;;2.15;;
80677;SDS011;70042;52.494;5.502;2023-11-22T10:52:01;3.88;;;2.13;;
80677;SDS011;70042;52.494;5.502;2023-11-22T10:54:30;3.33;;;2.55;;
80677;SDS011;70042;52.494;5.502;2023-11-22T10:56:57;2.85;;;2.22;;
80677;SDS011;70042;52.494;5.502;2023-11-22T10:59:26;2.70;;;2.25;;
80677;SDS011;70042;52.494;5.502;2023-11-22T11:01:53;3.03;;;2.17;;
80677;SDS011;70042;52.494;5.502;2023-11-22T11:04:27;4.00;;;2.47;;
80677;SDS011;70042;52.494;5.502;2023-11-22T11:07:00;2.55;;;1.95;;
80677;SDS011;70042;52.494;5.502;2023-11-22T11:09:27;3.50;;;2.42;;
80677;SDS011;70042;52.494;5.502;2023-11-22T11:11:57;3.05;;;2.10;;
80677;SDS011;70042;52.494;5.502;2023-11-22T11:14:24;3.13;;;2.08;;
80677;SDS011;70042;52.494;5.502;2023-11-22T11:16:51;2.25;;;1.92;;
80677;SDS011;70042;52.494;5.502;2023-11-22T11:19:19;2.88;;;2.50;;
80677;SDS011;70042;52.494;5.502;2023-11-22T11:21:49;3.67;;;2.20;;
80677;SDS011;70042;52.494;5.502;2023-11-22T11:24:14;3.08;;;2.22;;
80677;SDS011;70042;52.494;5.502;2023-11-22T11:26:40;2.80;;;2.22;;
80677;SDS011;70042;52.494;5.502;2023-11-22T11:29:29;3.88;;;2.08;;
80677;SDS011;70042;52.494;5.502;2023-11-22T11:31:59;3.45;;;2.50;;
80677;SDS011;70042;52.494;5.502;2023-11-22T11:34:25;3.33;;;2.28;;
80677;SDS011;70042;52.494;5.502;2023-11-22T11:39:26;2.85;;;2.08;;
80677;SDS011;70042;52.494;5.502;2023-11-22T11:42:08;4.18;;;2.50;;
80677;SDS011;70042;52.494;5.502;2023-11-22T11:44:35;5.60;;;2.05;;
80677;SDS011;70042;52.494;5.502;2023-11-22T11:47:08;3.08;;;2.17;;
80677;SDS011;70042;52.494;5.502;2023-11-22T11:49:36;3.08;;;2.22;;
80677;SDS011;70042;52.494;5.502;2023-11-22T11:52:04;3.20;;;2.30;;
80677;SDS011;70042;52.494;5.502;2023-11-22T11:54:29;3.45;;;2.47;;
80677;SDS011;70042;52.494;5.502;2023-11-22T11:56:58;2.95;;;1.98;;
80677;SDS011;70042;52.494;5.502;2023-11-22T11:59:25;2.97;;;2.13;;
80677;SDS011;70042;52.494;5.502;2023-11-22T12:01:54;2.97;;;2.33;;
80677;SDS011;70042;52.494;5.502;2023-11-22T12:04:23;3.35;;;2.25;;
80677;SDS011;70042;52.494;5.502;2023-11-22T12:06:49;3.35;;;2.28;;
80677;SDS011;70042;52.494;5.502;2023-11-22T12:09:25;2.72;;;2.15;;
80677;SDS011;70042;52.494;5.502;2023-11-22T12:11:53;4.07;;;2.53;;
80677;SDS011;70042;52.494;5.502;2023-11-22T12:14:24;2.78;;;2.00;;
80677;SDS011;70042;52.494;5.502;2023-11-22T12:16:51;3.17;;;2.30;;
80677;SDS011;70042;52.494;5.502;2023-11-22T12:19:24;2.97;;;2.28;;
80677;SDS011;70042;52.494;5.502;2023-11-22T12:21:52;4.35;;;2.60;;
80677;SDS011;70042;52.494;5.502;2023-11-22T12:24:18;2.80;;;2.08;;
80677;SDS011;70042;52.494;5.502;2023-11-22T12:26:45;2.88;;;2.17;;
80677;SDS011;70042;52.494;5.502;2023-11-22T12:29:14;2.40;;;1.83;;
80677;SDS011;70042;52.494;5.502;2023-11-22T12:31:49;3.38;;;2.60;;
80677;SDS011;70042;52.494;5.502;2023-11-22T12:34:17;3.25;;;2.17;;
80677;SDS011;70042;52.494;5.502;2023-11-22T12:39:10;2.55;;;2.05;;
80677;SDS011;70042;52.494;5.502;2023-11-22T12:41:43;2.67;;;2.15;;
80677;SDS011;70042;52.494;5.502;2023-11-22T12:44:10;3.65;;;1.95;;
80677;SDS011;70042;52.494;5.502;2023-11-22T12:46:51;2.90;;;2.22;;
80677;SDS011;70042;52.494;5.502;2023-11-22T12:49:24;3.05;;;2.50;;
80677;SDS011;70042;52.494;5.502;2023-11-22T12:51:52;3.58;;;2.30;;
80677;SDS011;70042;52.494;5.502;2023-11-22T12:54:19;2.70;;;2.08;;
80677;SDS011;70042;52.494;5.502;2023-11-22T12:56:49;4.43;;;2.60;;
80677;SDS011;70042;52.494;5.502;2023-11-22T12:59:16;4.97;;;2.75;;
80677;SDS011;70042;52.494;5.502;2023-11-22T13:01:43;4.25;;;2.42;;
80677;SDS011;70042;52.494;5.502;2023-11-22T13:04:09;3.15;;;2.28;;
80677;SDS011;70042;52.494;5.502;2023-11-22T13:06:35;2.88;;;2.20;;
80677;SDS011;70042;52.494;5.502;2023-11-22T13:09:00;2.95;;;2.13;;
80677;SDS011;70042;52.494;5.502;2023-11-22T13:11:26;3.35;;;2.50;;
80677;SDS011;70042;52.494;5.502;2023-11-22T13:13:51;3.13;;;2.17;;
80677;SDS011;70042;52.494;5.502;2023-11-22T13:16:17;3.78;;;2.28;;
80677;SDS011;70042;52.494;5.502;2023-11-22T13:18:44;3.88;;;2.50;;
80677;SDS011;70042;52.494;5.502;2023-11-22T13:21:09;3.28;;;2.50;;
80677;SDS011;70042;52.494;5.502;2023-11-22T13:23:35;3.90;;;2.58;;
80677;SDS011;70042;52.494;5.502;2023-11-22T13:26:00;4.10;;;1.80;;
80677;SDS011;70042;52.494;5.502;2023-11-22T13:28:26;3.15;;;2.03;;
80677;SDS011;70042;52.494;5.502;2023-11-22T13:30:52;3.47;;;2.17;;
80677;SDS011;70042;52.494;5.502;2023-11-22T13:33:18;4.05;;;2.40;;
80677;SDS011;70042;52.494;5.502;2023-11-22T13:35:43;3.10;;;2.30;;
80677;SDS011;70042;52.494;5.502;2023-11-22T13:40:38;2.63;;;1.95;;
80677;SDS011;70042;52.494;5.502;2023-11-22T13:43:05;2.65;;;2.08;;
80677;SDS011;70042;52.494;5.502;2023-11-22T13:45:31;2.78;;;2.00;;
80677;SDS011;70042;52.494;5.502;2023-11-22T13:47:59;2.53;;;2.30;;
80677;SDS011;70042;52.494;5.502;2023-11-22T13:50:33;3.50;;;2.17;;
80677;SDS011;70042;52.494;5.502;2023-11-22T13:52:59;3.50;;;2.50;;
80677;SDS011;70042;52.494;5.502;2023-11-22T13:55:24;3.25;;;2.45;;
80677;SDS011;70042;52.494;5.502;2023-11-22T14:00:17;3.13;;;2.00;;
80677;SDS011;70042;52.494;5.502;2023-11-22T14:02:47;2.72;;;1.95;;
80677;SDS011;70042;52.494;5.502;2023-11-22T14:05:24;3.15;;;2.10;;
80677;SDS011;70042;52.494;5.502;2023-11-22T14:07:51;2.65;;;2.08;;
80677;SDS011;70042;52.494;5.502;2023-11-22T14:12:43;3.05;;;2.10;;
80677;SDS011;70042;52.494;5.502;2023-11-22T14:15:10;3.30;;;2.15;;
80677;SDS011;70042;52.494;5.502;2023-11-22T14:17:36;3.15;;;2.20;;
80677;SDS011;70042;52.494;5.502;2023-11-22T14:20:04;3.03;;;2.00;;
80677;SDS011;70042;52.494;5.502;2023-11-22T14:22:32;2.70;;;2.03;;
80677;SDS011;70042;52.494;5.502;2023-11-22T14:24:57;3.80;;;2.63;;
80677;SDS011;70042;52.494;5.502;2023-11-22T14:27:23;3.10;;;2.47;;
80677;SDS011;70042;52.494;5.502;2023-11-22T14:29:49;3.92;;;2.65;;
80677;SDS011;70042;52.494;5.502;2023-11-22T14:32:16;3.30;;;2.42;;
80677;SDS011;70042;52.494;5.502;2023-11-22T14:34:42;4.50;;;2.42;;
80677;SDS011;70042;52.494;5.502;2023-11-22T14:37:11;2.60;;;2.10;;
80677;SDS011;70042;52.494;5.502;2023-11-22T14:39:37;3.30;;;2.30;;
80677;SDS011;70042;52.494;5.502;2023-11-22T14:42:06;3.47;;;2.28;;
80677;SDS011;70042;52.494;5.502;2023-11-22T14:44:33;2.60;;;2.17;;
80677;SDS011;70042;52.494;5.502;2023-11-22T14:47:01;2.90;;;2.15;;
80677;SDS011;70042;52.494;5.502;2023-11-22T14:49:34;2.80;;;2.05;;
80677;SDS011;70042;52.494;5.502;2023-11-22T14:51:59;2.90;;;1.92;;
80677;SDS011;70042;52.494;5.502;2023-11-22T14:54:25;3.70;;;2.38;;
80677;SDS011;70042;52.494;5.502;2023-11-22T14:56:52;3.30;;;2.70;;
80677;SDS011;70042;52.494;5.502;2023-11-22T14:59:19;2.60;;;2.03;;
80677;SDS011;70042;52.494;5.502;2023-11-22T15:01:45;3.80;;;2.42;;
80677;SDS011;70042;52.494;5.502;2023-11-22T15:04:11;3.08;;;2.05;;
80677;SDS011;70042;52.494;5.502;2023-11-22T15:06:37;2.67;;;2.33;;
80677;SDS011;70042;52.494;5.502;2023-11-22T15:09:03;3.20;;;2.40;;
80677;SDS011;70042;52.494;5.502;2023-11-22T15:11:34;2.63;;;2.30;;
80677;SDS011;70042;52.494;5.502;2023-11-22T15:14:02;2.53;;;2.10;;
80677;SDS011;70042;52.494;5.502;2023-11-22T15:16:27;2.83;;;2.15;;
80677;SDS011;70042;52.494;5.502;2023-11-22T15:18:53;2.70;;;2.30;;
80677;SDS011;70042;52.494;5.502;2023-11-22T15:21:18;2.53;;;1.95;;
80677;SDS011;70042;52.494;5.502;2023-11-22T15:23:44;2.78;;;2.30;;
80677;SDS011;70042;52.494;5.502;2023-11-22T15:28:35;3.83;;;2.23;;
80677;SDS011;70042;52.494;5.502;2023-11-22T15:31:01;3.38;;;2.25;;
80677;SDS011;70042;52.494;5.502;2023-11-22T15:33:27;3.33;;;2.33;;
80677;SDS011;70042;52.494;5.502;2023-11-22T15:35:52;2.65;;;2.10;;
80677;SDS011;70042;52.494;5.502;2023-11-22T15:40:44;3.58;;;2.30;;
80677;SDS011;70042;52.494;5.502;2023-11-22T15:43:10;3.28;;;2.35;;